Garryowen, Montana
Current Conditions -  °F | °C
As of 9:53 PM on Saturday 25 Oct 2014 (Local Time) from KSHR Reporting Station
Clear Clear  
Wind Chill: 58°   Ceiling: Unl
Heat Index: 58°   Visibility: 10mi
Dew Point: 26°   Wind: 6mph
Humidity: 30%   Direction: NA
Pressure: 29.71"   Gusts: NA
Location:  45.52°N, 107.41°W
Report Text: KSHR 260353Z AUTO VRB05KT 10SM CLR 14/M03 A2971 RMK AO2 SLP053 T01441033 TSNO
Loading
Personal Weather Stations






























Interactive Weather Map
Tropical Storm Tracking
New forecast layout! Learn more

10-Day Weather Forecast

Advertisements
Track Severe Weather on mobile